createdAt,value
2023-04-24T00:00:09.629Z,0
2023-04-24T00:01:10.238Z,0
2023-04-24T00:02:10.912Z,0
2023-04-24T00:03:11.697Z,0
2023-04-24T00:04:12.367Z,0
2023-04-24T00:05:12.776Z,0
2023-04-24T00:06:13.372Z,0
2023-04-24T00:07:13.974Z,0
2023-04-24T00:08:14.579Z,0
2023-04-24T00:09:15.181Z,0
2023-04-24T00:10:15.791Z,0
2023-04-24T00:11:16.396Z,0
2023-04-24T00:12:16.976Z,0
2023-04-24T00:13:17.575Z,0
2023-04-24T00:14:18.174Z,0
2023-04-24T00:15:18.772Z,0
2023-04-24T00:16:19.411Z,0
2023-04-24T00:17:19.976Z,0
2023-04-24T00:18:20.600Z,0
2023-04-24T00:19:21.184Z,0
2023-04-24T00:20:21.783Z,0
2023-04-24T00:21:22.374Z,0
2023-04-24T00:22:22.965Z,0
2023-04-24T00:23:23.565Z,0
2023-04-24T00:24:24.160Z,0
2023-04-24T00:25:24.753Z,0
2023-04-24T00:26:25.375Z,0
2023-04-24T00:27:25.963Z,0
2023-04-24T00:28:26.608Z,0
2023-04-24T00:29:27.193Z,0
2023-04-24T00:30:27.786Z,0
2023-04-24T00:31:28.441Z,0
2023-04-24T00:32:29.018Z,0
2023-04-24T00:33:29.581Z,0
2023-04-24T00:34:30.200Z,0
2023-04-24T00:35:30.793Z,0
2023-04-24T00:36:31.386Z,0
2023-04-24T00:37:31.980Z,0
2023-04-24T00:38:32.574Z,0
2023-04-24T00:39:33.168Z,0
2023-04-24T00:40:33.779Z,0
2023-04-24T00:41:34.355Z,0
2023-04-24T00:42:34.951Z,0
2023-04-24T00:43:35.554Z,0
2023-04-24T00:44:36.145Z,0
2023-04-24T00:45:36.731Z,0
2023-04-24T00:46:37.418Z,0
2023-04-24T00:47:38.079Z,0
2023-04-24T00:48:38.639Z,0
2023-04-24T00:49:39.238Z,0
2023-04-24T00:50:39.831Z,0
2023-04-24T00:51:40.419Z,0
2023-04-24T00:52:41.056Z,0
2023-04-24T00:53:41.623Z,0
2023-04-24T00:54:42.241Z,0
2023-04-24T00:55:42.829Z,0
2023-04-24T00:56:43.446Z,0
2023-04-24T00:57:44.020Z,0
2023-04-24T00:58:44.619Z,0
2023-04-24T00:59:45.325Z,0
2023-04-24T01:00:45.985Z,0
2023-04-24T01:01:46.671Z,0
2023-04-24T01:02:47.444Z,0
2023-04-24T01:03:48.255Z,0
2023-04-24T01:04:48.849Z,0
2023-04-24T01:05:49.435Z,0
2023-04-24T01:06:51.553Z,0
2023-04-24T01:07:51.625Z,0
2023-04-24T01:08:52.218Z,0
2023-04-24T01:09:52.829Z,0
2023-04-24T01:10:53.425Z,0
2023-04-24T01:11:54.019Z,0
2023-04-24T01:12:54.613Z,0
2023-04-24T01:13:55.208Z,0
2023-04-24T01:14:55.812Z,0
2023-04-24T01:15:56.451Z,0
2023-04-24T01:16:57.019Z,0
2023-04-24T01:17:57.647Z,0
2023-04-24T01:18:58.230Z,0
2023-04-24T01:19:58.825Z,0
2023-04-24T01:20:59.424Z,0
2023-04-24T01:22:00.031Z,0
2023-04-24T01:23:00.627Z,0
2023-04-24T01:24:01.227Z,0
2023-04-24T01:25:01.815Z,0
2023-04-24T01:26:02.406Z,0
2023-04-24T01:27:03.012Z,0
2023-04-24T01:28:03.595Z,0
2023-04-24T01:29:04.193Z,0
2023-04-24T01:30:04.792Z,0
2023-04-24T01:31:05.421Z,0
2023-04-24T01:32:06.009Z,0
2023-04-24T01:33:06.567Z,0
2023-04-24T01:34:07.158Z,0
2023-04-24T01:35:07.796Z,0
2023-04-24T01:36:08.379Z,0
2023-04-24T01:37:08.980Z,0
2023-04-24T01:38:09.575Z,0
2023-04-24T01:39:10.167Z,0
2023-04-24T01:40:10.765Z,0
2023-04-24T01:41:11.381Z,0
2023-04-24T01:42:11.969Z,0
2023-04-24T01:43:12.563Z,0
2023-04-24T01:44:13.158Z,0
2023-04-24T01:45:13.754Z,0
2023-04-24T01:46:14.400Z,0
2023-04-24T01:47:14.954Z,0
2023-04-24T01:48:15.550Z,0
2023-04-24T01:49:16.148Z,0
2023-04-24T01:50:16.764Z,0
2023-04-24T01:51:17.353Z,0
2023-04-24T01:52:17.968Z,0
2023-04-24T01:53:18.565Z,0
2023-04-24T01:54:19.185Z,0
2023-04-24T01:55:19.787Z,0
2023-04-24T01:56:20.390Z,0
2023-04-24T01:57:20.983Z,0
2023-04-24T01:58:21.602Z,0
2023-04-24T01:59:22.410Z,0
2023-04-24T02:00:22.920Z,0
2023-04-24T02:01:23.539Z,0
2023-04-24T02:02:24.246Z,0
2023-04-24T02:03:24.951Z,0
2023-04-24T02:04:25.672Z,0
2023-04-24T02:05:26.253Z,0
2023-04-24T02:06:26.849Z,0
2023-04-24T02:07:27.461Z,0
2023-04-24T02:08:28.032Z,0
2023-04-24T02:09:28.630Z,0
2023-04-24T02:10:29.224Z,0
2023-04-24T02:11:29.826Z,0
2023-04-24T02:12:30.413Z,0
2023-04-24T02:13:31.018Z,0
2023-04-24T02:14:31.621Z,0
2023-04-24T02:15:32.237Z,0
2023-04-24T02:16:32.868Z,0
2023-04-24T02:17:33.470Z,0
2023-04-24T02:18:34.048Z,0
2023-04-24T02:19:34.659Z,0
2023-04-24T02:20:35.252Z,0
2023-04-24T02:21:35.858Z,0
2023-04-24T02:22:36.444Z,0
2023-04-24T02:23:37.073Z,0
2023-04-24T02:24:37.668Z,0
2023-04-24T02:25:38.263Z,0
2023-04-24T02:26:38.880Z,0
2023-04-24T02:27:39.460Z,0
2023-04-24T02:28:40.083Z,0
2023-04-24T02:29:40.983Z,0
2023-04-24T02:30:41.268Z,0
2023-04-24T02:31:41.904Z,0
2023-04-24T02:32:42.494Z,0
2023-04-24T02:33:43.092Z,0
2023-04-24T02:34:43.690Z,0
2023-04-24T02:35:44.285Z,0
2023-04-24T02:36:44.871Z,0
2023-04-24T02:37:45.462Z,0
2023-04-24T02:38:46.058Z,0
2023-04-24T02:39:46.657Z,0
2023-04-24T02:40:47.248Z,0
2023-04-24T02:41:47.842Z,0
2023-04-24T02:42:48.440Z,0
2023-04-24T02:43:49.031Z,0
2023-04-24T02:44:49.622Z,0
2023-04-24T02:45:50.248Z,0
2023-04-24T02:46:50.815Z,0
2023-04-24T02:47:51.462Z,0
2023-04-24T02:48:52.002Z,0
2023-04-24T02:49:52.617Z,0
2023-04-24T02:50:53.236Z,0
2023-04-24T02:51:53.824Z,0
2023-04-24T02:52:54.419Z,0
2023-04-24T02:53:55.021Z,0
2023-04-24T02:54:55.625Z,0
2023-04-24T02:55:56.220Z,0
2023-04-24T02:56:56.842Z,0
2023-04-24T02:57:57.408Z,0
2023-04-24T02:58:58.007Z,0
2023-04-24T02:59:58.603Z,0
2023-04-24T03:00:59.226Z,0
2023-04-24T03:01:59.784Z,0
2023-04-24T03:03:00.568Z,0
2023-04-24T03:04:01.474Z,0
2023-04-24T03:05:02.195Z,0
2023-04-24T03:06:02.806Z,0
2023-04-24T03:07:03.404Z,0
2023-04-24T03:08:04.016Z,0
2023-04-24T03:09:04.605Z,0
2023-04-24T03:10:05.204Z,0
2023-04-24T03:11:05.795Z,0
2023-04-24T03:12:06.394Z,0
2023-04-24T03:13:06.985Z,0
2023-04-24T03:14:07.588Z,0
2023-04-24T03:15:08.198Z,0
2023-04-24T03:16:08.818Z,0
2023-04-24T03:17:09.402Z,0
2023-04-24T03:18:10.023Z,0
2023-04-24T03:19:10.614Z,0
2023-04-24T03:20:11.207Z,0
2023-04-24T03:21:11.796Z,0
2023-04-24T03:22:12.404Z,0
2023-04-24T03:23:12.981Z,0
2023-04-24T03:24:13.579Z,0
2023-04-24T03:25:14.177Z,0
2023-04-24T03:26:14.768Z,0
2023-04-24T03:27:15.369Z,0
2023-04-24T03:28:15.953Z,0
2023-04-24T03:29:16.557Z,0
2023-04-24T03:30:17.166Z,0
2023-04-24T03:31:17.830Z,0
2023-04-24T03:32:18.424Z,0
2023-04-24T03:33:19.007Z,0
2023-04-24T03:34:19.603Z,4
2023-04-24T03:35:20.204Z,4
2023-04-24T03:36:20.783Z,4
2023-04-24T03:37:21.380Z,4
2023-04-24T03:38:21.984Z,4
2023-04-24T03:39:22.575Z,4
2023-04-24T03:40:23.187Z,4
2023-04-24T03:41:23.810Z,8
2023-04-24T03:42:24.397Z,8
2023-04-24T03:43:24.998Z,8
2023-04-24T03:44:25.606Z,4
2023-04-24T03:45:26.201Z,4
2023-04-24T03:46:26.820Z,8
2023-04-24T03:47:27.404Z,8
2023-04-24T03:48:28.002Z,8
2023-04-24T03:49:28.601Z,8
2023-04-24T03:50:29.194Z,12
2023-04-24T03:51:29.811Z,12
2023-04-24T03:52:30.420Z,12
2023-04-24T03:53:31.030Z,16
2023-04-24T03:54:31.628Z,16
2023-04-24T03:55:32.225Z,20
2023-04-24T03:56:32.835Z,20
2023-04-24T03:57:33.429Z,24
2023-04-24T03:58:34.025Z,24
2023-04-24T03:59:34.620Z,28
2023-04-24T04:00:35.213Z,32
2023-04-24T04:01:35.810Z,32
2023-04-24T04:02:36.553Z,36
2023-04-24T04:03:37.457Z,40
2023-04-24T04:04:38.233Z,44
2023-04-24T04:05:38.938Z,52
2023-04-24T04:06:39.532Z,64
2023-04-24T04:07:40.136Z,80
2023-04-24T04:08:40.729Z,100
2023-04-24T04:09:41.777Z,128
2023-04-24T04:10:42.545Z,144
2023-04-24T04:11:43.141Z,164
2023-04-24T04:12:43.742Z,208
2023-04-24T04:13:44.331Z,264
2023-04-24T04:14:44.940Z,288
2023-04-24T04:15:45.526Z,348
2023-04-24T04:16:46.181Z,444
2023-04-24T04:17:46.739Z,528
2023-04-24T04:18:47.353Z,624
2023-04-24T04:19:47.963Z,732
2023-04-24T04:20:48.562Z,788
2023-04-24T04:21:49.181Z,828
2023-04-24T04:22:49.776Z,876
2023-04-24T04:23:50.382Z,888
2023-04-24T04:24:50.992Z,896
2023-04-24T04:25:51.609Z,924
2023-04-24T04:26:52.368Z,1032
2023-04-24T04:27:52.982Z,1116
2023-04-24T04:28:53.582Z,1196
2023-04-24T04:29:54.178Z,1296
2023-04-24T04:30:54.822Z,1356
2023-04-24T04:31:55.406Z,1412
2023-04-24T04:32:55.990Z,1472
2023-04-24T04:33:56.586Z,1572
2023-04-24T04:34:57.187Z,1652
2023-04-24T04:35:57.859Z,1624
2023-04-24T04:36:58.436Z,1584
2023-04-24T04:37:59.024Z,1608
2023-04-24T04:38:59.625Z,1588
2023-04-24T04:40:00.230Z,1636
2023-04-24T04:41:00.820Z,1748
2023-04-24T04:42:01.446Z,1768
2023-04-24T04:43:02.039Z,1772
2023-04-24T04:44:02.650Z,1772
2023-04-24T04:45:03.260Z,1892
2023-04-24T04:46:03.900Z,2048
2023-04-24T04:47:04.463Z,2156
2023-04-24T04:48:05.056Z,2312
2023-04-24T04:49:05.679Z,2484
2023-04-24T04:50:06.274Z,2556
2023-04-24T04:51:06.878Z,2672
2023-04-24T04:52:07.480Z,2824
2023-04-24T04:53:08.071Z,2876
2023-04-24T04:54:08.679Z,2968
2023-04-24T04:55:09.269Z,3160
2023-04-24T04:56:09.873Z,3256
2023-04-24T04:57:10.472Z,3464
2023-04-24T04:58:11.088Z,3856
2023-04-24T04:59:11.684Z,4244
2023-04-24T05:00:12.287Z,4304
2023-04-24T05:01:12.903Z,3980
2023-04-24T05:02:13.599Z,3956
2023-04-24T05:03:20.878Z,4132
2023-04-24T05:04:14.860Z,4248
2023-04-24T05:05:15.604Z,4512
2023-04-24T05:06:16.179Z,4736
2023-04-24T05:07:16.781Z,4560
2023-04-24T05:08:26.625Z,4332
2023-04-24T05:09:17.991Z,4232
2023-04-24T05:10:18.589Z,3984
2023-04-24T05:11:19.208Z,3692
2023-04-24T05:12:19.807Z,3516
2023-04-24T05:13:28.200Z,3128
2023-04-24T05:14:21.021Z,3176
2023-04-24T05:15:21.621Z,2756
2023-04-24T05:16:22.260Z,2632
2023-04-24T05:17:22.866Z,2568
2023-04-24T05:18:23.439Z,2300
2023-04-24T05:19:24.044Z,2196
2023-04-24T05:20:24.660Z,2240
2023-04-24T05:21:25.255Z,2108
2023-04-24T05:22:25.876Z,2492
2023-04-24T05:23:26.482Z,2512
2023-04-24T05:24:27.098Z,2252
2023-04-24T05:25:27.691Z,2436
2023-04-24T05:26:28.287Z,2560
2023-04-24T05:27:28.888Z,2864
2023-04-24T05:28:29.572Z,3280
2023-04-24T05:29:30.102Z,4484
2023-04-24T05:30:30.705Z,5416
2023-04-24T05:31:31.420Z,5232
2023-04-24T05:32:31.930Z,5552
2023-04-24T05:33:32.511Z,6160
2023-04-24T05:34:33.111Z,6576
2023-04-24T05:35:33.709Z,6756
2023-04-24T05:36:34.330Z,6768
2023-04-24T05:37:34.926Z,6460
2023-04-24T05:38:35.532Z,6120
2023-04-24T05:39:36.159Z,5988
2023-04-24T05:40:36.750Z,5788
2023-04-24T05:41:37.347Z,5936
2023-04-24T05:42:37.948Z,6208
2023-04-24T05:43:38.558Z,6660
2023-04-24T05:44:39.148Z,7048
2023-04-24T05:45:39.747Z,6892
2023-04-24T05:46:40.401Z,6520
2023-04-24T05:47:40.971Z,6360
2023-04-24T05:48:41.566Z,6092
2023-04-24T05:49:42.356Z,5816
2023-04-24T05:50:43.110Z,5636
2023-04-24T05:51:43.710Z,5740
2023-04-24T05:52:44.311Z,6072
2023-04-24T05:53:44.924Z,5736
2023-04-24T05:54:45.534Z,6264
2023-04-24T05:55:46.146Z,6988
2023-04-24T05:56:46.756Z,7776
2023-04-24T05:57:47.366Z,7312
2023-04-24T05:58:47.973Z,6876
2023-04-24T05:59:48.586Z,7008
2023-04-24T06:00:49.204Z,7184
2023-04-24T06:01:49.898Z,7060
2023-04-24T06:02:50.663Z,6532
2023-04-24T06:03:51.198Z,6168
2023-04-24T06:04:51.795Z,7620
2023-04-24T06:05:52.440Z,9432
2023-04-24T06:06:53.045Z,9820
2023-04-24T06:07:53.640Z,9952
2023-04-24T06:08:54.243Z,10384
2023-04-24T06:09:54.845Z,8516
2023-04-24T06:10:55.467Z,7228
2023-04-24T06:11:56.072Z,7888
2023-04-24T06:12:56.662Z,8368
2023-04-24T06:13:57.263Z,8500
2023-04-24T06:14:57.875Z,8768
2023-04-24T06:15:58.503Z,8516
2023-04-24T06:16:59.127Z,7836
2023-04-24T06:17:59.836Z,8876
2023-04-24T06:19:00.431Z,8904
2023-04-24T06:20:01.093Z,8720
2023-04-24T06:21:01.674Z,8788
2023-04-24T06:22:02.267Z,9288
2023-04-24T06:23:02.862Z,8084
2023-04-24T06:24:03.462Z,6628
2023-04-24T06:25:04.082Z,6524
2023-04-24T06:26:04.686Z,6844
2023-04-24T06:27:05.308Z,6944
2023-04-24T06:28:05.932Z,7404
2023-04-24T06:29:06.547Z,7744
2023-04-24T06:30:07.138Z,9308
2023-04-24T06:31:07.744Z,9348
2023-04-24T06:32:08.372Z,9960
2023-04-24T06:33:19.494Z,9864
2023-04-24T06:34:09.587Z,8716
2023-04-24T06:35:10.171Z,7948
2023-04-24T06:36:10.775Z,9292
2023-04-24T06:37:11.377Z,11400
2023-04-24T06:38:11.971Z,12276
2023-04-24T06:39:12.590Z,12544
2023-04-24T06:40:13.197Z,10776
2023-04-24T06:41:13.806Z,8980
2023-04-24T06:42:14.401Z,8308
2023-04-24T06:43:15.008Z,8736
2023-04-24T06:44:15.684Z,9536
2023-04-24T06:45:16.217Z,8804
2023-04-24T06:46:16.830Z,8220
2023-04-24T06:47:17.418Z,8880
2023-04-24T06:48:18.012Z,9464
2023-04-24T06:49:18.667Z,9552
2023-04-24T06:50:19.262Z,9380
2023-04-24T06:51:19.874Z,9624
2023-04-24T06:52:20.462Z,9716
2023-04-24T06:53:21.091Z,11372
2023-04-24T06:54:21.706Z,11248
2023-04-24T06:55:22.305Z,9780
2023-04-24T06:56:22.903Z,8352
2023-04-24T06:57:23.499Z,8012
2023-04-24T06:58:24.102Z,8512
2023-04-24T06:59:24.720Z,9044
2023-04-24T07:00:25.538Z,7988
2023-04-24T07:01:25.997Z,8060
2023-04-24T07:02:26.760Z,8888
2023-04-24T07:03:27.417Z,8248
2023-04-24T07:04:28.200Z,8064
2023-04-24T07:05:28.677Z,8552
2023-04-24T07:06:29.271Z,8640
2023-04-24T07:07:29.866Z,8976
2023-04-24T07:08:30.461Z,8052
2023-04-24T07:09:31.071Z,8420
2023-04-24T07:10:31.659Z,8028
2023-04-24T07:11:32.258Z,6992
2023-04-24T07:12:32.857Z,8056
2023-04-24T07:13:33.457Z,7524
2023-04-24T07:14:34.055Z,7084
2023-04-24T07:15:34.654Z,7168
2023-04-24T07:16:35.276Z,7588
2023-04-24T07:17:35.870Z,7228
2023-04-24T07:18:36.461Z,7208
2023-04-24T07:19:37.062Z,6600
2023-04-24T07:20:37.689Z,6588
2023-04-24T07:21:38.302Z,8080
2023-04-24T07:22:38.906Z,10364
2023-04-24T07:23:39.498Z,9252
2023-04-24T07:24:40.102Z,10476
2023-04-24T07:25:40.705Z,12552
2023-04-24T07:26:41.329Z,11700
2023-04-24T07:27:41.931Z,14120
2023-04-24T07:28:42.534Z,17072
2023-04-24T07:29:43.285Z,17316
2023-04-24T07:30:43.995Z,17172
2023-04-24T07:31:44.625Z,16476
2023-04-24T07:32:45.230Z,13472
2023-04-24T07:33:45.832Z,12892
2023-04-24T07:34:46.442Z,15140
2023-04-24T07:35:47.051Z,16660
2023-04-24T07:36:47.668Z,16100
2023-04-24T07:37:48.268Z,15700
2023-04-24T07:38:48.876Z,15460
2023-04-24T07:39:49.482Z,14888
2023-04-24T07:40:50.073Z,15620
2023-04-24T07:41:50.674Z,16900
2023-04-24T07:42:51.274Z,15944
2023-04-24T07:43:51.872Z,14092
2023-04-24T07:44:52.473Z,12052
2023-04-24T07:45:53.090Z,10780
2023-04-24T07:46:53.756Z,12424
2023-04-24T07:47:54.481Z,13216
2023-04-24T07:49:05.623Z,12404
2023-04-24T07:49:56.673Z,10188
2023-04-24T07:50:57.273Z,9500
2023-04-24T07:51:57.888Z,10408
2023-04-24T07:52:58.501Z,10932
2023-04-24T07:53:59.093Z,10360
2023-04-24T07:54:59.694Z,10132
2023-04-24T07:56:00.299Z,10092
2023-04-24T07:57:00.916Z,9860
2023-04-24T07:58:01.515Z,10220
2023-04-24T07:59:02.135Z,10188
2023-04-24T08:00:02.741Z,9440
2023-04-24T08:01:03.349Z,10384
2023-04-24T08:02:03.949Z,10520
2023-04-24T08:03:04.641Z,11584
2023-04-24T08:04:05.511Z,10324
2023-04-24T08:05:05.947Z,11324
2023-04-24T08:06:06.548Z,12548
2023-04-24T08:07:07.140Z,11148
2023-04-24T08:08:07.760Z,11560
2023-04-24T08:09:08.363Z,11732
2023-04-24T08:10:08.963Z,12344
2023-04-24T08:11:09.586Z,12628
2023-04-24T08:12:10.192Z,13944
2023-04-24T08:13:10.791Z,14160
2023-04-24T08:14:11.405Z,12568
2023-04-24T08:15:12.010Z,14184
2023-04-24T08:16:12.716Z,15300
2023-04-24T08:17:13.235Z,14216
2023-04-24T08:18:13.882Z,13500
2023-04-24T08:19:14.459Z,13764
2023-04-24T08:20:15.054Z,13292
2023-04-24T08:21:15.655Z,14012
2023-04-24T08:22:16.281Z,15780
2023-04-24T08:23:16.882Z,13808
2023-04-24T08:24:17.473Z,13988
2023-04-24T08:25:18.072Z,14160
2023-04-24T08:26:18.677Z,14092
2023-04-24T08:27:19.320Z,13820
2023-04-24T08:28:19.929Z,14208
2023-04-24T08:29:20.520Z,13508
2023-04-24T08:30:21.232Z,13308
2023-04-24T08:31:21.920Z,13908
2023-04-24T08:32:22.543Z,14376
2023-04-24T08:33:23.148Z,18336
2023-04-24T08:34:23.749Z,24032
2023-04-24T08:35:24.346Z,25600
2023-04-24T08:36:28.315Z,24800
2023-04-24T08:37:26.542Z,23264
2023-04-24T08:38:27.156Z,19392
2023-04-24T08:39:27.760Z,16840
2023-04-24T08:40:28.361Z,19520
2023-04-24T08:41:28.961Z,17152
2023-04-24T08:42:29.570Z,15172
2023-04-24T08:43:30.164Z,16088
2023-04-24T08:44:30.768Z,14960
2023-04-24T08:45:31.983Z,13740
2023-04-24T08:46:32.651Z,15808
2023-04-24T08:47:33.230Z,18848
2023-04-24T08:48:33.817Z,23264
2023-04-24T08:49:34.417Z,24064
2023-04-24T08:50:35.015Z,20032
2023-04-24T08:51:35.617Z,18848
2023-04-24T08:52:36.241Z,24544
2023-04-24T08:53:36.842Z,22208
2023-04-24T08:54:37.485Z,18336
2023-04-24T08:55:38.065Z,17672
2023-04-24T08:56:38.684Z,17628
2023-04-24T08:57:39.284Z,18848
2023-04-24T08:58:39.890Z,18112
2023-04-24T08:59:40.520Z,17668
2023-04-24T09:00:41.104Z,22400
2023-04-24T09:01:41.794Z,28192
2023-04-24T09:02:42.389Z,29888
2023-04-24T09:03:43.190Z,31968
2023-04-24T09:04:43.944Z,41376
2023-04-24T09:05:44.598Z,64992
2023-04-24T09:06:45.208Z,73376
2023-04-24T09:07:45.810Z,107808
2023-04-24T09:08:46.415Z,48544
2023-04-24T09:09:47.011Z,37280
2023-04-24T09:10:49.793Z,40896
2023-04-24T09:11:49.206Z,58432
2023-04-24T09:12:49.812Z,44864
2023-04-24T09:13:50.408Z,49632
2023-04-24T09:14:51.014Z,36896
2023-04-24T09:15:51.619Z,29408
2023-04-24T09:16:52.245Z,31904
2023-04-24T09:17:52.965Z,34272
2023-04-24T09:18:53.535Z,31808
2023-04-24T09:19:54.135Z,25824
2023-04-24T09:20:54.746Z,26144
2023-04-24T09:21:55.359Z,32288
2023-04-24T09:22:55.969Z,36608
2023-04-24T09:23:56.570Z,38976
2023-04-24T09:24:57.193Z,111072
2023-04-24T09:25:57.794Z,40320
2023-04-24T09:26:58.413Z,34080
2023-04-24T09:27:59.016Z,30272
2023-04-24T09:28:59.620Z,29568
2023-04-24T09:30:00.220Z,26784
2023-04-24T09:31:00.818Z,29664
2023-04-24T09:32:01.489Z,26688
2023-04-24T09:33:02.140Z,30272
2023-04-24T09:34:03.637Z,34432
2023-04-24T09:35:04.346Z,34048
2023-04-24T09:36:04.978Z,36096
2023-04-24T09:37:05.600Z,30208
2023-04-24T09:38:06.221Z,22176
2023-04-24T09:39:06.851Z,20608
2023-04-24T09:40:07.466Z,25664
2023-04-24T09:41:08.089Z,32096
2023-04-24T09:42:08.670Z,35968
2023-04-24T09:43:09.295Z,28192
2023-04-24T09:44:09.892Z,23520
2023-04-24T09:45:15.096Z,21632
2023-04-24T09:46:12.099Z,21952
2023-04-24T09:47:12.683Z,21952
2023-04-24T09:48:13.302Z,20992
2023-04-24T09:49:13.903Z,21792
2023-04-24T09:50:14.519Z,20032
2023-04-24T09:51:15.356Z,16164
2023-04-24T09:52:15.958Z,15392
2023-04-24T09:53:16.555Z,13224
2023-04-24T09:54:17.168Z,12036
2023-04-24T09:55:17.781Z,9484
2023-04-24T09:56:18.377Z,7904
2023-04-24T09:57:18.997Z,7728
2023-04-24T09:58:19.608Z,8032
2023-04-24T09:59:20.222Z,7424
2023-04-24T10:00:20.814Z,6940
2023-04-24T10:01:21.430Z,8788
2023-04-24T10:02:22.222Z,9888
2023-04-24T10:03:22.769Z,10716
2023-04-24T10:04:23.448Z,12660
2023-04-24T10:05:23.989Z,14268
2023-04-24T10:06:24.593Z,15776
2023-04-24T10:07:25.194Z,18944
2023-04-24T10:08:25.798Z,22656
2023-04-24T10:09:26.394Z,24640
2023-04-24T10:10:26.995Z,26080
2023-04-24T10:11:27.610Z,30272
2023-04-24T10:12:28.215Z,37440
2023-04-24T10:13:28.818Z,45632
2023-04-24T10:14:29.571Z,54720
2023-04-24T10:15:30.172Z,58976
2023-04-24T10:16:30.925Z,51040
2023-04-24T10:17:31.585Z,36288
2023-04-24T10:18:32.165Z,35712
2023-04-24T10:19:32.808Z,34656
2023-04-24T10:20:33.384Z,25024
2023-04-24T10:21:33.986Z,20064
2023-04-24T10:22:34.590Z,16608
2023-04-24T10:23:35.207Z,13772
2023-04-24T10:24:35.808Z,12012
2023-04-24T10:25:36.407Z,10696
2023-04-24T10:26:37.006Z,8960
2023-04-24T10:27:37.608Z,8296
2023-04-24T10:28:38.204Z,9576
2023-04-24T10:29:38.811Z,11388
2023-04-24T10:30:39.404Z,13792
2023-04-24T10:31:40.015Z,15928
2023-04-24T10:32:40.627Z,19424
2023-04-24T10:33:41.209Z,19488
2023-04-24T10:34:41.805Z,14204
2023-04-24T10:35:42.402Z,10176
2023-04-24T10:36:43.004Z,9752
2023-04-24T10:37:43.603Z,11296
2023-04-24T10:38:44.209Z,14308
2023-04-24T10:39:44.826Z,17776
2023-04-24T10:40:45.470Z,22304
2023-04-24T10:41:46.059Z,28160
2023-04-24T10:42:46.660Z,32672
2023-04-24T10:43:47.268Z,31712
2023-04-24T10:44:47.884Z,35392
2023-04-24T10:45:48.485Z,43840
2023-04-24T10:46:49.112Z,44448
2023-04-24T10:47:49.731Z,44576
2023-04-24T10:48:50.322Z,49056
2023-04-24T10:49:50.926Z,56064
2023-04-24T10:50:51.550Z,75200
2023-04-24T10:51:52.168Z,56000
2023-04-24T10:52:52.767Z,34304
2023-04-24T10:53:53.371Z,25600
2023-04-24T10:54:53.981Z,24064
2023-04-24T10:55:54.576Z,23552
2023-04-24T10:56:55.177Z,24064
2023-04-24T10:57:55.778Z,23904
2023-04-24T10:58:56.387Z,19424
2023-04-24T10:59:57.151Z,17792
2023-04-24T11:00:57.818Z,15088
2023-04-24T11:01:58.624Z,16120
2023-04-24T11:02:59.403Z,21280
2023-04-24T11:04:00.195Z,23328
2023-04-24T11:05:00.873Z,20736
2023-04-24T11:06:01.473Z,23328
2023-04-24T11:07:02.078Z,38272
2023-04-24T11:08:02.693Z,56928
2023-04-24T11:09:03.447Z,83584
2023-04-24T11:10:04.050Z,123328
2023-04-24T11:11:04.658Z,128640
2023-04-24T11:12:05.250Z,49184
2023-04-24T11:13:05.856Z,44032
2023-04-24T11:14:06.468Z,42720
2023-04-24T11:15:07.064Z,31552
2023-04-24T11:16:07.715Z,23552
2023-04-24T11:17:08.299Z,18976
2023-04-24T11:18:08.921Z,18432
2023-04-24T11:19:09.568Z,17212
2023-04-24T11:20:26.220Z,16728
2023-04-24T11:21:10.755Z,18816
2023-04-24T11:22:11.357Z,19200
2023-04-24T11:23:11.973Z,19712
2023-04-24T11:24:12.576Z,18720
2023-04-24T11:25:13.180Z,17508
2023-04-24T11:26:13.820Z,18816
2023-04-24T11:27:14.419Z,18144
2023-04-24T11:28:15.019Z,16304
2023-04-24T11:29:16.857Z,18368
2023-04-24T11:30:17.245Z,25824
2023-04-24T11:31:17.866Z,32960
2023-04-24T11:32:18.625Z,38944
2023-04-24T11:33:19.120Z,42848
2023-04-24T11:34:19.685Z,42976
2023-04-24T11:35:20.305Z,43104
2023-04-24T11:36:20.906Z,37248
2023-04-24T11:37:21.511Z,33280
2023-04-24T11:38:24.899Z,33216
2023-04-24T11:39:23.630Z,30176
2023-04-24T11:40:24.262Z,23552
2023-04-24T11:41:24.833Z,16952
2023-04-24T11:42:25.471Z,21280
2023-04-24T11:43:26.085Z,22624
2023-04-24T11:44:26.702Z,19680
2023-04-24T11:45:27.322Z,18592
2023-04-24T11:46:28.043Z,15880
2023-04-24T11:47:28.646Z,12716
2023-04-24T11:48:29.226Z,11024
2023-04-24T11:49:29.831Z,8216
2023-04-24T11:50:30.413Z,7908
2023-04-24T11:51:36.632Z,7272
2023-04-24T11:52:32.613Z,7020
2023-04-24T11:53:33.209Z,6980
2023-04-24T11:54:33.811Z,5952
2023-04-24T11:55:34.424Z,5084
2023-04-24T11:56:35.024Z,6184
2023-04-24T11:57:35.626Z,6128
2023-04-24T11:58:36.221Z,9384
2023-04-24T11:59:36.895Z,13408
2023-04-24T12:00:37.479Z,14772
2023-04-24T12:01:38.081Z,15156
2023-04-24T12:02:40.195Z,15732
2023-04-24T12:03:40.501Z,17524
2023-04-24T12:04:41.328Z,17476
2023-04-24T12:05:42.266Z,16504
2023-04-24T12:06:43.012Z,15452
2023-04-24T12:07:43.639Z,13904
2023-04-24T12:08:44.229Z,11780
2023-04-24T12:09:45.758Z,11396
2023-04-24T12:10:45.452Z,10992
2023-04-24T12:11:46.079Z,10312
2023-04-24T12:12:46.666Z,9592
2023-04-24T12:13:47.270Z,8240
2023-04-24T12:14:47.869Z,6380
2023-04-24T12:15:48.524Z,6344
2023-04-24T12:16:49.158Z,12232
2023-04-24T12:17:49.816Z,18432
2023-04-24T12:18:50.373Z,20000
2023-04-24T12:19:50.970Z,20576
2023-04-24T12:20:51.578Z,21408
2023-04-24T12:21:52.191Z,22048
2023-04-24T12:22:52.789Z,22368
2023-04-24T12:23:53.392Z,22240
2023-04-24T12:24:53.991Z,21760
2023-04-24T12:25:54.592Z,20640
2023-04-24T12:26:55.208Z,18560
2023-04-24T12:27:55.811Z,17644
2023-04-24T12:28:56.434Z,16116
2023-04-24T12:29:57.039Z,15924
2023-04-24T12:30:57.698Z,16396
2023-04-24T12:31:58.279Z,14452
2023-04-24T12:32:58.999Z,14528
2023-04-24T12:33:59.522Z,16932
2023-04-24T12:35:00.197Z,15588
2023-04-24T12:36:00.773Z,16376
2023-04-24T12:37:01.373Z,16840
2023-04-24T12:38:01.991Z,14732
2023-04-24T12:39:02.592Z,11584
2023-04-24T12:40:03.194Z,10584
2023-04-24T12:41:03.812Z,13732
2023-04-24T12:42:04.412Z,14356
2023-04-24T12:43:05.008Z,14624
2023-04-24T12:44:05.610Z,14196
2023-04-24T12:45:06.210Z,14360
2023-04-24T12:46:06.843Z,13668
2023-04-24T12:47:07.513Z,11380
2023-04-24T12:48:08.180Z,8756
2023-04-24T12:49:08.770Z,9168
2023-04-24T12:50:09.385Z,8512
2023-04-24T12:51:09.982Z,8844
2023-04-24T12:52:10.585Z,9132
2023-04-24T12:53:11.211Z,11580
2023-04-24T12:54:11.824Z,13888
2023-04-24T12:55:12.428Z,14892
2023-04-24T12:56:13.040Z,14832
2023-04-24T12:57:13.643Z,14748
2023-04-24T12:58:14.249Z,15988
2023-04-24T12:59:14.845Z,16588
2023-04-24T13:00:16.934Z,17164
2023-04-24T13:01:17.104Z,16088
2023-04-24T13:02:17.806Z,15144
2023-04-24T13:03:18.533Z,19136
2023-04-24T13:04:19.399Z,20640
2023-04-24T13:05:20.006Z,20512
2023-04-24T13:06:20.664Z,21984
2023-04-24T13:07:21.224Z,21504
2023-04-24T13:08:21.844Z,21280
2023-04-24T13:09:22.457Z,22496
2023-04-24T13:10:23.089Z,22656
2023-04-24T13:11:23.659Z,22560
2023-04-24T13:12:24.260Z,19872
2023-04-24T13:13:24.868Z,16892
2023-04-24T13:14:25.476Z,14908
2023-04-24T13:15:26.108Z,14044
2023-04-24T13:16:26.756Z,15344
2023-04-24T13:17:27.356Z,17364
2023-04-24T13:18:27.934Z,18880
2023-04-24T13:19:28.533Z,15364
2023-04-24T13:20:29.137Z,15692
2023-04-24T13:21:29.731Z,17096
2023-04-24T13:22:30.351Z,14348
2023-04-24T13:23:31.013Z,18368
2023-04-24T13:24:31.575Z,19936
2023-04-24T13:25:32.176Z,19808
2023-04-24T13:26:32.775Z,18496
2023-04-24T13:27:33.381Z,18528
2023-04-24T13:28:34.424Z,17092
2023-04-24T13:29:35.031Z,13332
2023-04-24T13:30:35.602Z,12004
2023-04-24T13:31:36.233Z,15508
2023-04-24T13:32:36.877Z,17188
2023-04-24T13:33:37.450Z,16676
2023-04-24T13:34:38.058Z,15740
2023-04-24T13:35:38.656Z,13912
2023-04-24T13:36:39.308Z,13472
2023-04-24T13:37:39.884Z,14372
2023-04-24T13:38:40.471Z,15220
2023-04-24T13:39:41.085Z,14740